Time;durP1;ratioP1;P1;durP2;ratioP2;P2;SDS_P1;SDS_P2;PMS_P1;PMS_P2;Temp;Humidity;BMP_temperature;BMP_pressure;BME280_temperature;BME280_humidity;BME280_pressure;Samples;Min_cycle;Max_cycle;Signal;HPM_P1;HPM_P2
2023/08/09 00:00:16;;;;;;;1.27;0.40;;;;;;;15.56;100.00;100724.88;5020627;28;20384;-57
2023/08/09 00:02:41;;;;;;;1.38;1.10;;;;;;;15.51;100.00;100724.72;5022501;28;20045;-56
2023/08/09 00:05:07;;;;;;;0.63;0.63;;;;;;;15.52;100.00;100729.03;5012901;28;20038;-58
2023/08/09 00:07:33;;;;;;;0.82;0.40;;;;;;;15.47;100.00;100725.16;5019073;28;20029;-54
2023/08/09 00:09:58;;;;;;;0.25;0.25;;;;;;;15.42;100.00;100729.53;5027288;28;20069;-58
2023/08/09 00:12:23;;;;;;;0.80;0.38;;;;;;;15.37;100.00;100724.81;5023745;28;20198;-57
2023/08/09 00:14:50;;;;;;;3.92;1.40;;;;;;;15.36;100.00;100731.22;5019803;28;20056;-57
2023/08/09 00:17:15;;;;;;;0.20;0.17;;;;;;;15.31;100.00;100731.03;5010776;28;20033;-56
2023/08/09 00:19:41;;;;;;;2.33;1.02;;;;;;;15.29;100.00;100729.63;5025840;28;20044;-57
2023/08/09 00:22:08;;;;;;;0.35;0.35;;;;;;;15.29;100.00;100726.94;5025754;28;20048;-58
2023/08/09 00:24:33;;;;;;;0.35;0.20;;;;;;;15.28;100.00;100728.78;5019049;28;20502;-58
2023/08/09 00:26:58;;;;;;;0.38;0.22;;;;;;;15.25;100.00;100731.88;5017794;28;20038;-57
2023/08/09 00:29:24;;;;;;;0.75;0.40;;;;;;;15.26;100.00;100730.88;5018740;28;20112;-56
2023/08/09 00:31:49;;;;;;;0.50;0.50;;;;;;;15.19;100.00;100727.41;5012881;28;20598;-56
2023/08/09 00:34:14;;;;;;;0.40;0.35;;;;;;;15.14;100.00;100729.91;5020191;28;20387;-55
2023/08/09 00:36:40;;;;;;;4.03;0.73;;;;;;;15.17;100.00;100738.31;5018020;28;20037;-58
2023/08/09 00:39:06;;;;;;;0.50;0.30;;;;;;;15.15;100.00;100739.56;5017433;28;20064;-55
2023/08/09 00:41:32;;;;;;;0.43;0.43;;;;;;;15.05;100.00;100738.19;5019912;28;20064;-55
2023/08/09 00:43:57;;;;;;;0.30;0.25;;;;;;;15.01;100.00;100742.31;5013949;28;20084;-55
2023/08/09 00:46:23;;;;;;;0.32;0.25;;;;;;;14.93;100.00;100747.91;5013426;28;20462;-57
2023/08/09 00:48:48;;;;;;;0.32;0.20;;;;;;;14.96;100.00;100746.66;5020947;28;20029;-58
2023/08/09 00:51:13;;;;;;;0.65;0.50;;;;;;;14.97;100.00;100743.78;5010916;28;20122;-57
2023/08/09 00:53:39;;;;;;;0.75;0.43;;;;;;;14.98;100.00;100750.75;5016501;28;20045;-55
2023/08/09 00:56:04;;;;;;;0.57;0.57;;;;;;;14.93;100.00;100753.22;5016448;28;20423;-53
2023/08/09 00:58:30;;;;;;;0.32;0.32;;;;;;;14.86;100.00;100763.13;5017562;28;20046;-58
2023/08/09 01:00:55;;;;;;;2.17;1.30;;;;;;;14.74;100.00;100757.63;5020210;28;20033;-55
2023/08/09 01:03:20;;;;;;;5.82;0.65;;;;;;;14.71;100.00;100749.22;5020222;28;20113;-54
2023/08/09 01:05:55;;;;;;;0.47;0.47;;;;;;;14.50;100.00;100764.44;5020589;28;20043;-57
2023/08/09 01:08:32;;;;;;;0.32;0.30;;;;;;;14.50;100.00;100777.78;5014920;28;20116;-59
2023/08/09 01:11:32;;;;;;;1.05;0.70;;;;;;;14.48;100.00;100787.03;5022206;28;20432;-59
2023/08/09 01:13:59;;;;;;;2.15;0.63;;;;;;;14.44;100.00;100781.31;5026221;28;20493;-56
2023/08/09 01:16:27;;;;;;;2.60;0.28;;;;;;;14.46;100.00;100786.44;5017284;28;20083;-57
2023/08/09 01:18:53;;;;;;;1.02;0.68;;;;;;;14.48;100.00;100787.88;5022613;28;20391;-55
2023/08/09 01:21:21;;;;;;;0.63;0.55;;;;;;;14.48;100.00;100793.22;5026109;28;20027;-55
2023/08/09 01:23:48;;;;;;;0.40;0.40;;;;;;;14.44;100.00;100786.63;5021635;28;20037;-55
2023/08/09 01:26:13;;;;;;;2.83;0.28;;;;;;;14.42;100.00;100783.34;5012976;28;20053;-56
2023/08/09 01:28:40;;;;;;;0.43;0.35;;;;;;;14.39;100.00;100778.44;5018538;28;20443;-53
2023/08/09 01:31:05;;;;;;;2.55;0.73;;;;;;;14.35;100.00;100780.72;5025790;28;20120;-55
2023/08/09 01:33:31;;;;;;;3.15;0.75;;;;;;;14.31;100.00;100787.47;5017127;28;20036;-58
2023/08/09 01:36:18;;;;;;;3.00;0.70;;;;;;;14.41;100.00;100781.72;5021490;28;20034;-56
2023/08/09 01:38:48;;;;;;;4.30;1.00;;;;;;;14.30;100.00;100785.00;5018443;28;20064;-56
2023/08/09 01:41:15;;;;;;;0.25;0.25;;;;;;;14.20;100.00;100793.47;5024296;28;20025;-58
2023/08/09 01:43:41;;;;;;;2.47;0.93;;;;;;;14.13;100.00;100806.78;5024047;28;20572;-57
2023/08/09 01:46:07;;;;;;;2.28;1.08;;;;;;;14.07;100.00;100812.97;5015371;28;20042;-58
2023/08/09 01:48:32;;;;;;;7.43;0.57;;;;;;;13.98;100.00;100814.19;5023023;28;20083;-56
2023/08/09 01:50:59;;;;;;;0.65;0.40;;;;;;;13.88;100.00;100813.75;5016837;28;20033;-57
2023/08/09 01:53:24;;;;;;;0.40;0.38;;;;;;;13.82;100.00;100810.06;5016494;28;20379;-56
2023/08/09 01:55:49;;;;;;;0.75;0.75;;;;;;;13.85;100.00;100798.19;5021208;28;20121;-54
2023/08/09 01:58:15;;;;;;;4.22;0.30;;;;;;;13.89;100.00;100800.25;5020104;28;20096;-55
2023/08/09 02:00:40;;;;;;;1.10;1.00;;;;;;;13.89;100.00;100799.44;5015817;28;20046;-55
2023/08/09 02:03:06;;;;;;;0.95;0.52;;;;;;;13.88;100.00;100800.44;5015674;28;20511;-56
2023/08/09 02:05:32;;;;;;;0.43;0.32;;;;;;;13.86;100.00;100805.13;5025570;28;20482;-55
2023/08/09 02:07:57;;;;;;;0.90;0.55;;;;;;;13.90;100.00;100801.88;5023529;28;20029;-56
2023/08/09 02:10:23;;;;;;;1.00;1.00;;;;;;;13.83;100.00;100806.38;5017614;28;20030;-56
2023/08/09 02:12:48;;;;;;;0.82;0.22;;;;;;;13.80;100.00;100811.31;5016881;28;20025;-57
2023/08/09 02:15:16;;;;;;;0.30;0.28;;;;;;;13.71;100.00;100824.00;5018395;28;20052;-56
2023/08/09 02:17:43;;;;;;;0.98;0.13;;;;;;;13.67;100.00;100831.56;5016935;28;20032;-55
2023/08/09 02:20:10;;;;;;;1.13;1.10;;;;;;;13.72;100.00;100839.78;5022536;28;20286;-53
2023/08/09 02:22:39;;;;;;;0.50;0.45;;;;;;;13.79;100.00;100842.47;5019504;28;20048;-57
2023/08/09 02:25:07;;;;;;;0.80;0.70;;;;;;;13.77;100.00;100862.34;5026442;28;20025;-55
2023/08/09 02:27:33;;;;;;;1.08;0.80;;;;;;;13.78;100.00;100862.13;5021767;28;20103;-57
2023/08/09 02:29:58;;;;;;;4.50;0.63;;;;;;;13.89;100.00;100852.75;5026921;28;20029;-55
2023/08/09 02:32:24;;;;;;;0.93;0.93;;;;;;;13.98;100.00;100854.16;5019678;28;20483;-55
2023/08/09 02:34:49;;;;;;;4.65;0.75;;;;;;;13.92;100.00;100852.31;5019922;28;20080;-55
2023/08/09 02:37:14;;;;;;;2.67;1.10;;;;;;;13.83;100.00;100842.88;5017138;28;20034;-56
2023/08/09 02:39:40;;;;;;;2.28;0.85;;;;;;;13.72;100.00;100839.78;5019302;28;20041;-55
2023/08/09 02:42:05;;;;;;;1.00;0.50;;;;;;;13.68;100.00;100830.56;5019101;28;20088;-56
2023/08/09 02:44:32;;;;;;;21.05;2.28;;;;;;;13.68;100.00;100833.22;5018164;28;20037;-57
2023/08/09 02:46:58;;;;;;;1.58;0.70;;;;;;;13.59;100.00;100834.44;5015980;28;20049;-57
2023/08/09 02:49:24;;;;;;;3.22;0.70;;;;;;;13.56;100.00;100834.84;5024356;28;20033;-55
2023/08/09 02:51:49;;;;;;;8.55;0.40;;;;;;;13.55;100.00;100832.38;5022130;28;20099;-57
2023/08/09 02:54:14;;;;;;;11.80;1.65;;;;;;;13.48;100.00;100833.19;5035385;28;20026;-58
2023/08/09 02:56:40;;;;;;;14.73;1.40;;;;;;;13.44;100.00;100844.44;5008968;28;20136;-56
2023/08/09 02:59:05;;;;;;;0.50;0.40;;;;;;;13.40;100.00;100840.53;5020972;28;20049;-56
2023/08/09 03:01:30;;;;;;;0.80;0.80;;;;;;;13.28;100.00;100840.28;5022543;28;20588;-53
2023/08/09 03:03:56;;;;;;;0.85;0.65;;;;;;;13.26;100.00;100843.16;5025676;28;20035;-59
2023/08/09 03:06:22;;;;;;;2.55;0.60;;;;;;;13.19;100.00;100850.28;5017466;28;20030;-58
2023/08/09 03:08:51;;;;;;;4.30;0.20;;;;;;;13.20;100.00;100848.44;5018653;28;20189;-58
2023/08/09 03:11:22;;;;;;;3.72;0.55;;;;;;;13.20;100.00;100857.25;5021531;28;20029;-58
2023/08/09 03:13:47;;;;;;;0.27;0.13;;;;;;;13.27;100.00;100851.97;5015914;28;20025;-55
2023/08/09 03:16:12;;;;;;;1.20;0.57;;;;;;;13.35;100.00;100870.44;5013632;28;20306;-57
2023/08/09 03:18:39;;;;;;;0.85;0.40;;;;;;;13.34;100.00;100867.97;5023418;28;20043;-57
2023/08/09 03:21:05;;;;;;;3.70;1.08;;;;;;;13.38;100.00;100875.38;5018912;28;20479;-56
2023/08/09 03:23:30;;;;;;;0.60;0.50;;;;;;;13.48;100.00;100883.81;5018781;28;20029;-56
2023/08/09 03:25:55;;;;;;;1.30;0.40;;;;;;;13.57;100.00;100881.75;5017655;28;20581;-57
2023/08/09 03:28:21;;;;;;;0.50;0.50;;;;;;;13.65;100.00;100878.91;5025172;28;20039;-56
2023/08/09 03:30:46;;;;;;;0.98;0.25;;;;;;;13.66;100.00;100885.91;5015011;28;20487;-57
2023/08/09 03:33:12;;;;;;;1.92;0.30;;;;;;;13.73;100.00;100894.75;5017633;28;20561;-57
2023/08/09 03:35:37;;;;;;;0.88;0.30;;;;;;;13.73;100.00;100892.06;5016979;28;20033;-55
2023/08/09 03:38:02;;;;;;;6.00;0.52;;;;;;;13.67;100.00;100887.53;5022386;28;20036;-55
2023/08/09 03:40:28;;;;;;;0.68;0.30;;;;;;;13.75;100.00;100897.19;5012032;28;20033;-56
2023/08/09 03:42:53;;;;;;;1.75;0.43;;;;;;;13.72;100.00;100900.25;5014280;28;20057;-56
2023/08/09 03:45:18;;;;;;;1.60;0.35;;;;;;;13.87;100.00;100910.75;5019517;28;20203;-54
2023/08/09 03:47:44;;;;;;;2.03;0.50;;;;;;;13.96;100.00;100917.53;5017372;28;20083;-56
2023/08/09 03:50:10;;;;;;;2.67;0.55;;;;;;;14.00;100.00;100918.78;5016634;28;20037;-59
2023/08/09 03:52:36;;;;;;;3.35;1.05;;;;;;;14.02;100.00;100916.72;5017266;28;20037;-57
2023/08/09 03:55:01;;;;;;;3.15;0.65;;;;;;;14.10;100.00;100924.53;5014140;28;20026;-56
2023/08/09 03:57:29;;;;;;;0.47;0.47;;;;;;;14.12;100.00;100922.47;5017353;28;20398;-59
2023/08/09 03:59:54;;;;;;;4.97;0.30;;;;;;;14.06;100.00;100911.81;5018025;28;20041;-54
2023/08/09 04:02:20;;;;;;;5.03;0.47;;;;;;;14.10;100.00;100918.38;5018503;28;20049;-58
2023/08/09 04:04:45;;;;;;;1.95;1.23;;;;;;;14.18;100.00;100926.19;5021064;28;20103;-58
2023/08/09 04:07:11;;;;;;;2.45;0.80;;;;;;;14.17;100.00;100920.03;5018707;28;20380;-54
2023/08/09 04:09:36;;;;;;;3.25;0.70;;;;;;;14.30;100.00;100924.56;5018155;28;20036;-55
2023/08/09 04:12:03;;;;;;;0.55;0.55;;;;;;;14.26;100.00;100925.97;5015680;28;20116;-56
2023/08/09 04:14:28;;;;;;;10.75;1.77;;;;;;;14.16;100.00;100913.03;5020706;28;20431;-55
2023/08/09 04:16:54;;;;;;;0.75;0.38;;;;;;;14.17;100.00;100913.84;5018606;28;20045;-56
2023/08/09 04:19:20;;;;;;;9.60;1.00;;;;;;;14.24;100.00;100911.19;5018106;28;20033;-52
2023/08/09 04:21:45;;;;;;;9.48;2.42;;;;;;;14.28;100.00;100915.94;5004213;28;20034;-56
2023/08/09 04:24:10;;;;;;;6.22;0.80;;;;;;;14.32;100.00;100925.16;5017254;28;20539;-54
2023/08/09 04:26:36;;;;;;;5.93;0.57;;;;;;;14.33;100.00;100910.81;5018330;28;20060;-54
2023/08/09 04:29:02;;;;;;;6.20;1.00;;;;;;;14.28;100.00;100925.78;5020620;28;20026;-53
2023/08/09 04:31:28;;;;;;;5.18;0.70;;;;;;;14.26;100.00;100914.50;5026772;28;20513;-53
2023/08/09 04:33:54;;;;;;;3.35;0.80;;;;;;;14.26;100.00;100923.31;5022430;28;20021;-54
2023/08/09 04:36:19;;;;;;;1.42;0.55;;;;;;;14.13;100.00;100921.44;5018819;28;20475;-57
2023/08/09 04:38:45;;;;;;;8.35;1.60;;;;;;;14.04;100.00;100920.00;5022788;28;20475;-53
2023/08/09 04:41:10;;;;;;;1.00;0.82;;;;;;;14.04;100.00;100930.66;5021960;28;20352;-56
2023/08/09 04:43:39;;;;;;;0.98;0.95;;;;;;;14.07;100.00;100929.44;5022222;28;20025;-55
2023/08/09 04:46:04;;;;;;;4.15;0.73;;;;;;;14.09;100.00;100930.88;5023819;28;20125;-58
2023/08/09 04:48:30;;;;;;;5.95;0.80;;;;;;;14.12;100.00;100922.47;5019925;28;20125;-52
2023/08/09 04:50:56;;;;;;;1.88;1.00;;;;;;;14.05;100.00;100926.97;5020930;28;20033;-59
2023/08/09 04:53:21;;;;;;;8.43;2.40;;;;;;;14.06;100.00;100935.78;5025557;28;20166;-58
2023/08/09 04:55:47;;;;;;;2.08;1.13;;;;;;;14.01;100.00;100936.41;5021609;28;20157;-58
2023/08/09 04:58:12;;;;;;;6.10;1.73;;;;;;;14.00;100.00;100936.63;5022206;28;20494;-58
2023/08/09 05:00:38;;;;;;;4.88;1.00;;;;;;;14.09;100.00;100936.19;5024821;28;20037;-57
2023/08/09 05:03:04;;;;;;;2.13;0.60;;;;;;;14.06;100.00;100933.13;5014075;28;20045;-58
2023/08/09 05:05:30;;;;;;;1.63;1.27;;;;;;;14.02;100.00;100942.53;5016723;28;20045;-58
2023/08/09 05:07:56;;;;;;;0.65;0.65;;;;;;;13.99;100.00;100950.94;5024440;28;20032;-56
2023/08/09 05:10:21;;;;;;;0.65;0.50;;;;;;;13.92;100.00;100943.78;5019172;28;20064;-56
2023/08/09 05:12:48;;;;;;;4.05;1.13;;;;;;;13.91;100.00;100944.81;5022201;28;20524;-53
2023/08/09 05:15:13;;;;;;;0.30;0.30;;;;;;;13.89;100.00;100938.84;5020094;28;20053;-56
2023/08/09 05:17:38;;;;;;;2.83;0.68;;;;;;;13.83;100.00;100939.63;5019243;28;20082;-55
2023/08/09 05:20:04;;;;;;;1.55;0.40;;;;;;;13.88;100.00;100937.19;5022281;28;20413;-54
2023/08/09 05:22:30;;;;;;;1.52;0.43;;;;;;;14.00;100.00;100940.09;5023138;28;20041;-54
2023/08/09 05:24:55;;;;;;;4.50;0.60;;;;;;;14.01;100.00;100936.41;5026052;28;20034;-54
2023/08/09 05:27:20;;;;;;;3.42;0.50;;;;;;;14.02;100.00;100948.72;5023134;28;20166;-59
2023/08/09 05:29:46;;;;;;;1.27;0.32;;;;;;;14.04;100.00;100962.66;5027389;28;20028;-56
2023/08/09 05:32:11;;;;;;;1.13;0.85;;;;;;;14.09;100.00;100960.19;5023817;28;20064;-54
2023/08/09 05:34:37;;;;;;;16.95;2.03;;;;;;;14.13;100.00;100945.44;5021158;28;20478;-56
2023/08/09 05:37:03;;;;;;;4.40;0.77;;;;;;;14.19;100.00;100947.28;5022704;28;20037;-56
2023/08/09 05:39:28;;;;;;;1.85;0.60;;;;;;;14.18;100.00;100948.31;5026627;28;20044;-59
2023/08/09 05:41:53;;;;;;;10.45;1.30;;;;;;;14.19;100.00;100941.97;5018133;28;20033;-58
2023/08/09 05:44:19;;;;;;;1.27;0.63;;;;;;;14.22;100.00;100954.06;5022320;28;20055;-57
2023/08/09 05:46:44;;;;;;;0.65;0.65;;;;;;;14.25;100.00;100960.84;5018520;28;20037;-57
2023/08/09 05:49:10;;;;;;;1.85;0.17;;;;;;;14.24;100.00;100969.88;5027210;28;20099;-58
2023/08/09 05:51:35;;;;;;;0.20;0.15;;;;;;;14.29;100.00;100972.75;5021858;28;20060;-58
2023/08/09 05:54:01;;;;;;;7.75;0.60;;;;;;;14.38;100.00;100969.69;5021983;28;20131;-56
2023/08/09 05:56:27;;;;;;;14.18;1.70;;;;;;;14.44;100.00;100972.56;5013667;28;20029;-54
2023/08/09 05:58:52;;;;;;;3.65;0.32;;;;;;;14.44;100.00;100976.06;5020109;28;20033;-56
2023/08/09 06:01:17;;;;;;;5.35;1.38;;;;;;;14.43;100.00;100969.09;5015738;28;20093;-55
2023/08/09 06:03:43;;;;;;;4.88;1.10;;;;;;;14.38;100.00;100968.88;5011699;28;20065;-58
2023/08/09 06:06:10;;;;;;;3.83;0.45;;;;;;;14.38;100.00;100972.38;5012155;28;20475;-59
2023/08/09 06:08:36;;;;;;;0.25;0.25;;;;;;;14.45;100.00;100972.34;5023429;28;20091;-59
2023/08/09 06:11:02;;;;;;;0.63;0.50;;;;;;;14.52;100.00;100975.03;5018592;28;20038;-57
2023/08/09 06:13:27;;;;;;;0.35;0.35;;;;;;;14.60;100.00;100982.84;5014911;28;20044;-54
2023/08/09 06:15:53;;;;;;;0.22;0.22;;;;;;;14.69;100.00;100984.31;5021629;28;20029;-57
2023/08/09 06:18:18;;;;;;;0.50;0.40;;;;;;;14.81;100.00;100985.31;5017700;28;20034;-55
2023/08/09 06:20:44;;;;;;;0.85;0.17;;;;;;;14.89;100.00;100983.47;5014558;28;20091;-55
2023/08/09 06:23:10;;;;;;;0.45;0.20;;;;;;;14.95;100.00;100986.13;5018828;28;20030;-56
2023/08/09 06:25:35;;;;;;;0.60;0.32;;;;;;;15.00;100.00;100982.84;5017665;28;20374;-57
2023/08/09 06:28:01;;;;;;;0.38;0.38;;;;;;;15.03;100.00;100993.91;5017415;28;20029;-56
2023/08/09 06:30:26;;;;;;;1.50;0.47;;;;;;;15.18;100.00;100990.19;5015876;28;20033;-55
2023/08/09 06:32:51;;;;;;;0.30;0.20;;;;;;;15.26;100.00;100992.66;5013160;28;20029;-56
2023/08/09 06:35:17;;;;;;;4.25;0.20;;;;;;;15.40;100.00;100998.78;5011337;28;20376;-55
2023/08/09 06:37:42;;;;;;;0.55;0.55;;;;;;;15.51;100.00;100998.09;5011849;28;20033;-58
2023/08/09 06:40:09;;;;;;;0.22;0.22;;;;;;;15.55;100.00;100990.50;5014471;28;20124;-57
2023/08/09 06:42:34;;;;;;;0.85;0.52;;;;;;;15.58;100.00;100988.22;5009404;28;20620;-55
2023/08/09 06:45:00;;;;;;;1.88;0.40;;;;;;;15.63;100.00;100976.91;5007594;28;20221;-57
2023/08/09 06:47:26;;;;;;;2.00;0.40;;;;;;;15.68;100.00;100988.59;5013100;28;20379;-55
2023/08/09 06:49:51;;;;;;;1.70;0.57;;;;;;;15.76;100.00;100992.91;5018331;28;20026;-58
2023/08/09 06:52:17;;;;;;;4.68;0.47;;;;;;;15.83;100.00;100983.00;5014823;28;20033;-57
2023/08/09 06:54:42;;;;;;;0.40;0.40;;;;;;;15.90;100.00;100989.16;5020807;28;20089;-59
2023/08/09 06:57:07;;;;;;;0.60;0.10;;;;;;;16.03;100.00;101001.63;5016350;28;20036;-59
2023/08/09 06:59:34;;;;;;;14.07;2.65;;;;;;;16.13;100.00;101001.16;5019241;28;20041;-56
2023/08/09 07:01:59;;;;;;;0.40;0.40;;;;;;;16.24;100.00;101011.19;5006584;28;20045;-57
2023/08/09 07:04:26;;;;;;;0.38;0.38;;;;;;;16.43;100.00;101003.22;5007586;28;20060;-58
2023/08/09 07:06:53;;;;;;;1.83;0.68;;;;;;;16.55;100.00;101001.50;5014087;28;20031;-59
2023/08/09 07:09:18;;;;;;;0.15;0.15;;;;;;;16.72;100.00;101001.75;5016809;28;20032;-59
2023/08/09 07:11:46;;;;;;;0.13;0.13;;;;;;;16.79;100.00;101003.38;5021581;28;20033;-56
2023/08/09 07:14:11;;;;;;;0.40;0.30;;;;;;;16.91;100.00;101006.16;5008998;28;20053;-57
2023/08/09 07:16:36;;;;;;;0.63;0.25;;;;;;;17.04;100.00;101010.59;5014539;28;20084;-57
2023/08/09 07:19:02;;;;;;;1.35;0.28;;;;;;;17.20;100.00;101007.31;5017670;28;20036;-59
2023/08/09 07:21:28;;;;;;;1.83;0.25;;;;;;;17.31;100.00;101010.31;5020986;28;20490;-57
2023/08/09 07:23:54;;;;;;;1.33;0.28;;;;;;;17.42;100.00;101018.44;5015853;28;20115;-59
2023/08/09 07:26:19;;;;;;;4.00;0.60;;;;;;;17.58;100.00;101011.66;5013083;28;20392;-59
2023/08/09 07:28:44;;;;;;;0.43;0.17;;;;;;;17.69;100.00;101023.50;5017129;28;20047;-60
2023/08/09 07:31:20;;;;;;;1.73;0.20;;;;;;;17.77;100.00;101019.69;5020120;28;20041;-60
2023/08/09 07:33:46;;;;;;;1.05;0.10;;;;;;;17.88;100.00;101022.44;5020882;28;20532;-61
2023/08/09 07:36:11;;;;;;;4.53;0.00;;;;;;;18.06;100.00;101010.84;5021388;28;20025;-61
2023/08/09 07:38:37;;;;;;;5.78;0.10;;;;;;;18.14;100.00;101012.41;5012891;28;20289;-61
2023/08/09 07:41:02;;;;;;;1.45;0.30;;;;;;;18.30;100.00;101019.81;5008253;28;20037;-60
2023/08/09 07:43:28;;;;;;;0.00;0.00;;;;;;;18.39;100.00;101022.97;5005431;28;20037;-60
2023/08/09 07:45:54;;;;;;;2.88;0.13;;;;;;;18.49;100.00;101039.34;5010795;28;20037;-59
2023/08/09 07:48:19;;;;;;;0.10;0.10;;;;;;;18.62;100.00;101041.00;5003446;28;20052;-60
2023/08/09 07:50:45;;;;;;;0.13;0.00;;;;;;;18.70;100.00;101035.31;5004298;28;20453;-58
2023/08/09 07:53:10;;;;;;;0.85;0.00;;;;;;;18.82;100.00;101038.03;5003886;28;20124;-61
2023/08/09 07:55:36;;;;;;;0.55;0.25;;;;;;;18.95;100.00;101043.19;5018600;28;20033;-61
2023/08/09 07:58:01;;;;;;;1.17;0.20;;;;;;;19.14;100.00;101045.75;5015533;28;20467;-61
2023/08/09 08:00:26;;;;;;;0.13;0.10;;;;;;;19.32;100.00;101042.94;5015582;28;20037;-61
2023/08/09 08:02:53;;;;;;;1.73;0.10;;;;;;;19.48;100.00;101046.78;5012042;28;20223;-61
2023/08/09 08:05:19;;;;;;;1.85;0.10;;;;;;;19.69;100.00;101047.25;5018969;28;20037;-59
2023/08/09 08:07:44;;;;;;;1.83;0.03;;;;;;;19.83;100.00;101035.16;5017940;28;20041;-60
2023/08/09 08:10:14;;;;;;;2.80;0.10;;;;;;;19.89;100.00;101036.09;5008143;28;20037;-60
2023/08/09 08:12:41;;;;;;;0.00;0.00;;;;;;;19.99;100.00;101025.50;5009642;28;20041;-61
2023/08/09 08:15:07;;;;;;;0.00;0.00;;;;;;;20.08;100.00;101024.06;5016166;28;20025;-62
2023/08/09 08:17:33;;;;;;;0.60;0.22;;;;;;;20.13;100.00;101018.75;5007794;28;20544;-56
2023/08/09 08:19:59;;;;;;;1.02;0.15;;;;;;;20.33;100.00;101030.97;5017559;28;20034;-58
2023/08/09 08:22:24;;;;;;;1.55;0.17;;;;;;;20.47;100.00;101035.81;5022054;28;20037;-57
2023/08/09 08:24:49;;;;;;;4.18;0.45;;;;;;;20.56;100.00;101033.56;5014712;28;20467;-58
2023/08/09 08:27:15;;;;;;;0.20;0.10;;;;;;;20.73;100.00;101043.50;5012430;28;20120;-58
2023/08/09 08:29:40;;;;;;;0.15;0.00;;;;;;;20.82;100.00;101033.97;5019404;28;20138;-56
2023/08/09 08:32:05;;;;;;;0.10;0.10;;;;;;;20.95;100.00;101039.03;5010930;28;20422;-58
2023/08/09 08:34:31;;;;;;;1.45;0.00;;;;;;;21.07;100.00;101026.28;5019810;28;20712;-54
2023/08/09 08:36:58;;;;;;;0.52;0.25;;;;;;;20.82;100.00;101029.38;5011539;28;20033;-58
2023/08/09 08:39:23;;;;;;;1.08;0.00;;;;;;;21.25;100.00;101040.53;5019068;28;20029;-59
2023/08/09 08:41:50;;;;;;;1.08;0.32;;;;;;;21.29;100.00;101036.28;5011679;28;20086;-62
2023/08/09 08:44:15;;;;;;;0.10;0.00;;;;;;;21.32;100.00;101033.06;5013662;28;20033;-61
2023/08/09 08:46:41;;;;;;;0.57;0.00;;;;;;;21.30;100.00;101040.63;5013006;28;20060;-61
2023/08/09 08:49:12;;;;;;;0.20;0.00;;;;;;;21.56;100.00;101031.81;5006103;28;20036;-56
2023/08/09 08:51:40;;;;;;;1.27;0.25;;;;;;;21.70;100.00;101040.34;5009940;28;20044;-61
2023/08/09 08:54:07;;;;;;;0.75;0.00;;;;;;;21.73;100.00;101039.03;5006304;28;20068;-61
2023/08/09 08:56:33;;;;;;;1.45;0.10;;;;;;;21.77;100.00;101040.16;5007839;28;20115;-62
2023/08/09 08:58:59;;;;;;;0.52;0.00;;;;;;;21.94;100.00;101030.09;5011240;28;20029;-57
2023/08/09 09:01:25;;;;;;;0.00;0.00;;;;;;;22.10;100.00;101030.28;5008399;28;20431;-64
2023/08/09 09:03:51;;;;;;;0.15;0.08;;;;;;;22.04;100.00;101039.38;5011723;28;20474;-67
2023/08/09 09:06:16;;;;;;;0.10;0.00;;;;;;;21.93;100.00;101033.84;5006755;28;20056;-63
2023/08/09 09:08:43;;;;;;;0.00;0.00;;;;;;;21.86;100.00;101044.03;5006485;28;20038;-60
2023/08/09 09:11:18;;;;;;;0.00;0.00;;;;;;;21.51;100.00;101047.13;5006954;28;20033;-62
2023/08/09 09:13:47;;;;;;;0.03;0.00;;;;;;;21.50;100.00;101046.31;5006325;28;20033;-56
2023/08/09 09:16:15;;;;;;;0.05;0.00;;;;;;;21.88;100.00;101052.69;5007596;28;20037;-57
2023/08/09 09:18:41;;;;;;;1.55;0.10;;;;;;;22.36;100.00;101051.09;5006892;28;20398;-58
2023/08/09 09:21:10;;;;;;;0.10;0.00;;;;;;;22.54;100.00;101049.09;5008304;28;20248;-61
2023/08/09 09:23:36;;;;;;;0.28;0.10;;;;;;;22.39;100.00;101041.66;5010243;28;20338;-58
2023/08/09 09:26:14;;;;;;;0.50;0.00;;;;;;;22.41;100.00;101039.50;5011154;28;20072;-53
2023/08/09 09:28:41;;;;;;;1.23;0.00;;;;;;;22.76;100.00;101055.19;5015507;28;20453;-55
2023/08/09 09:31:08;;;;;;;0.45;0.10;;;;;;;22.80;100.00;101047.41;5016388;28;20025;-53
2023/08/09 09:33:35;;;;;;;1.17;0.10;;;;;;;23.03;100.00;101046.25;5012210;28;20153;-55
2023/08/09 09:36:02;;;;;;;0.50;0.05;;;;;;;23.33;100.00;101033.97;5012021;28;20755;-52
2023/08/09 09:38:28;;;;;;;0.35;0.10;;;;;;;23.60;100.00;101044.66;5014657;28;20068;-55
2023/08/09 09:40:53;;;;;;;0.20;0.00;;;;;;;23.75;100.00;101042.06;5014029;28;20033;-56
2023/08/09 09:43:19;;;;;;;2.40;0.00;;;;;;;23.72;100.00;101048.81;5013129;28;20036;-58
2023/08/09 09:45:45;;;;;;;1.75;0.10;;;;;;;23.81;100.00;101051.81;5009814;28;20506;-59
2023/08/09 09:48:16;;;;;;;0.00;0.00;;;;;;;23.82;100.00;101050.72;5013923;28;20291;-58
2023/08/09 09:50:42;;;;;;;;;;;;;;;23.80;100.00;101050.19;5015247;28;20033;-58
2023/08/09 09:53:15;;;;;;;0.22;0.10;;;;;;;23.90;100.00;101049.38;5007283;28;19975;-58
2023/08/09 09:55:41;;;;;;;0.10;0.00;;;;;;;24.11;100.00;101056.50;5016710;28;20059;-61
2023/08/09 09:58:07;;;;;;;0.08;0.00;;;;;;;23.86;100.00;101053.72;5010756;28;20451;-59
2023/08/09 10:00:33;;;;;;;0.52;0.00;;;;;;;23.75;100.00;101052.03;5016178;28;20594;-53
2023/08/09 10:03:04;;;;;;;0.20;0.00;;;;;;;23.62;100.00;101054.16;5013341;28;20053;-60
2023/08/09 10:05:44;;;;;;;0.32;0.00;;;;;;;23.82;100.00;101058.03;5019063;28;20028;-60
2023/08/09 10:08:12;;;;;;;1.27;0.00;;;;;;;24.30;100.00;101054.09;5012738;28;20075;-57
2023/08/09 10:10:38;;;;;;;0.25;0.13;;;;;;;24.68;100.00;101070.97;5017215;28;20143;-57
2023/08/09 10:13:07;;;;;;;0.20;0.20;;;;;;;24.66;100.00;101067.72;5014145;28;20065;-67
2023/08/09 10:15:41;;;;;;;0.00;0.00;;;;;;;23.72;100.00;101062.34;5016291;28;20041;-64
2023/08/09 10:18:20;;;;;;;0.00;0.00;;;;;;;23.96;100.00;101067.28;5013255;28;20083;-67
2023/08/09 10:20:51;;;;;;;3.70;0.00;;;;;;;24.30;100.00;101069.53;5011458;28;20590;-58
2023/08/09 10:23:24;;;;;;;0.32;0.00;;;;;;;24.39;100.00;101076.03;5011854;28;20025;-55
2023/08/09 10:25:51;;;;;;;0.40;0.00;;;;;;;24.35;100.00;101056.00;5011741;28;20483;-63
2023/08/09 10:28:17;;;;;;;0.57;0.00;;;;;;;24.42;100.00;101053.00;5011463;28;20045;-66
2023/08/09 10:30:51;;;;;;;0.00;0.00;;;;;;;24.56;100.00;101062.28;5016265;28;20057;-60
2023/08/09 10:33:21;;;;;;;1.65;0.10;;;;;;;24.68;100.00;101054.69;5008038;28;20034;-66
2023/08/09 10:35:51;;;;;;;0.55;0.15;;;;;;;24.47;100.00;101061.97;5013579;28;20043;-61
2023/08/09 10:38:37;;;;;;;0.00;0.00;;;;;;;24.68;100.00;101053.88;5011548;28;20030;-59
2023/08/09 10:41:10;;;;;;;0.82;0.40;;;;;;;25.01;100.00;101049.78;5013855;28;20682;-58
2023/08/09 10:43:36;;;;;;;0.20;0.00;;;;;;;25.10;98.19;101048.13;5009468;28;20489;-58
2023/08/09 10:46:23;;;;;;;6.03;0.05;;;;;;;25.37;94.02;101041.56;5012253;28;20037;-59
2023/08/09 10:48:50;;;;;;;0.15;0.00;;;;;;;25.59;97.54;101052.09;5011402;28;20061;-63
2023/08/09 10:51:18;;;;;;;1.33;0.00;;;;;;;25.47;95.45;101049.69;5010463;28;20057;-63
2023/08/09 10:54:01;;;;;;;0.10;0.00;;;;;;;25.34;93.73;101045.66;5027101;28;20042;-63
2023/08/09 10:56:41;;;;;;;0.93;0.00;;;;;;;25.31;91.20;101046.22;5015637;28;20111;-60
2023/08/09 10:59:15;;;;;;;0.27;0.00;;;;;;;25.40;91.22;101043.72;5010025;28;20034;-52
2023/08/09 11:01:41;;;;;;;1.10;0.10;;;;;;;25.52;90.96;101048.88;5014046;28;20053;-57
2023/08/09 11:04:09;;;;;;;0.80;0.73;;;;;;;25.60;92.04;101049.09;5009448;28;20121;-58
2023/08/09 11:06:36;;;;;;;0.47;0.00;;;;;;;25.78;93.26;101049.56;5010678;28;20035;-58
2023/08/09 11:09:14;;;;;;;0.35;0.00;;;;;;;25.88;90.31;101049.53;5004856;28;20060;-60
2023/08/09 11:11:42;;;;;;;0.00;0.00;;;;;;;26.29;91.42;101043.84;5009990;28;20057;-65
2023/08/09 11:14:08;;;;;;;0.17;0.00;;;;;;;26.24;91.64;101036.53;5011248;28;20137;-58